sensor_id;sensor_type;location;lat;lon;timestamp;pressure;altitude;pressure_sealevel;temperature;humidity
61320;BME280;47202;41.440;-8.310;2022-11-20T00:00:53;100464.03;;;11.27;100.00
61320;BME280;47202;41.440;-8.310;2022-11-20T00:02:53;100461.56;;;11.26;100.00
61320;BME280;47202;41.440;-8.310;2022-11-20T00:04:54;100474.34;;;11.31;100.00
61320;BME280;47202;41.440;-8.310;2022-11-20T00:06:55;100470.00;;;11.29;100.00
61320;BME280;47202;41.440;-8.310;2022-11-20T00:08:59;100471.22;;;11.34;100.00
61320;BME280;47202;41.440;-8.310;2022-11-20T00:11:17;100472.03;;;11.34;100.00
61320;BME280;47202;41.440;-8.310;2022-11-20T00:13:18;100469.34;;;11.34;100.00
61320;BME280;47202;41.440;-8.310;2022-11-20T00:15:19;100464.78;;;11.35;100.00
61320;BME280;47202;41.440;-8.310;2022-11-20T00:17:20;100471.00;;;11.35;100.00
61320;BME280;47202;41.440;-8.310;2022-11-20T00:19:21;100475.94;;;11.38;100.00
61320;BME280;47202;41.440;-8.310;2022-11-20T00:21:24;100466.44;;;11.36;100.00
61320;BME280;47202;41.440;-8.310;2022-11-20T00:23:25;100469.13;;;11.36;100.00
61320;BME280;47202;41.440;-8.310;2022-11-20T00:25:26;100468.91;;;11.37;100.00
61320;BME280;47202;41.440;-8.310;2022-11-20T00:27:27;100470.56;;;11.38;100.00
61320;BME280;47202;41.440;-8.310;2022-11-20T00:29:28;100463.78;;;11.36;100.00
61320;BME280;47202;41.440;-8.310;2022-11-20T00:31:30;100472.44;;;11.38;100.00
61320;BME280;47202;41.440;-8.310;2022-11-20T00:33:31;100476.38;;;11.35;100.00
61320;BME280;47202;41.440;-8.310;2022-11-20T00:35:32;100472.00;;;11.41;100.00
61320;BME280;47202;41.440;-8.310;2022-11-20T00:37:33;100462.88;;;11.42;100.00
61320;BME280;47202;41.440;-8.310;2022-11-20T00:39:34;100437.91;;;11.35;100.00
61320;BME280;47202;41.440;-8.310;2022-11-20T00:41:34;100443.47;;;11.40;100.00
61320;BME280;47202;41.440;-8.310;2022-11-20T00:43:36;100444.50;;;11.39;100.00
61320;BME280;47202;41.440;-8.310;2022-11-20T00:45:37;100448.25;;;11.38;100.00
61320;BME280;47202;41.440;-8.310;2022-11-20T00:47:38;100444.56;;;11.32;100.00
61320;BME280;47202;41.440;-8.310;2022-11-20T00:49:39;100444.34;;;11.34;100.00
61320;BME280;47202;41.440;-8.310;2022-11-20T00:51:40;100454.22;;;11.40;100.00
61320;BME280;47202;41.440;-8.310;2022-11-20T00:53:41;100456.91;;;11.40;100.00
61320;BME280;47202;41.440;-8.310;2022-11-20T00:55:42;100450.94;;;11.38;100.00
61320;BME280;47202;41.440;-8.310;2022-11-20T00:57:43;100460.63;;;11.39;100.00
61320;BME280;47202;41.440;-8.310;2022-11-20T00:59:43;100456.69;;;11.41;100.00
61320;BME280;47202;41.440;-8.310;2022-11-20T01:01:44;100459.63;;;11.40;100.00
61320;BME280;47202;41.440;-8.310;2022-11-20T01:03:47;100453.63;;;11.38;100.00
61320;BME280;47202;41.440;-8.310;2022-11-20T01:05:48;100452.56;;;11.39;100.00
61320;BME280;47202;41.440;-8.310;2022-11-20T01:07:49;100444.50;;;11.39;100.00
61320;BME280;47202;41.440;-8.310;2022-11-20T01:09:50;100446.81;;;11.35;100.00
61320;BME280;47202;41.440;-8.310;2022-11-20T01:11:51;100451.78;;;11.32;100.00
61320;BME280;47202;41.440;-8.310;2022-11-20T01:13:53;100452.03;;;11.30;100.00
61320;BME280;47202;41.440;-8.310;2022-11-20T01:15:54;100446.88;;;11.28;100.00
61320;BME280;47202;41.440;-8.310;2022-11-20T01:17:55;100451.19;;;11.29;100.00
61320;BME280;47202;41.440;-8.310;2022-11-20T01:19:56;100438.41;;;11.25;100.00
61320;BME280;47202;41.440;-8.310;2022-11-20T01:21:57;100445.41;;;11.33;100.00
61320;BME280;47202;41.440;-8.310;2022-11-20T01:23:58;100434.41;;;11.34;100.00
61320;BME280;47202;41.440;-8.310;2022-11-20T01:26:04;100417.25;;;11.35;100.00
61320;BME280;47202;41.440;-8.310;2022-11-20T01:28:05;100427.34;;;11.40;100.00
61320;BME280;47202;41.440;-8.310;2022-11-20T01:30:06;100429.81;;;11.41;100.00
61320;BME280;47202;41.440;-8.310;2022-11-20T01:32:07;100420.09;;;11.40;100.00
61320;BME280;47202;41.440;-8.310;2022-11-20T01:34:19;100423.97;;;11.44;100.00
61320;BME280;47202;41.440;-8.310;2022-11-20T01:36:22;100425.03;;;11.43;100.00
61320;BME280;47202;41.440;-8.310;2022-11-20T01:38:23;100420.94;;;11.41;100.00
61320;BME280;47202;41.440;-8.310;2022-11-20T01:40:24;100427.34;;;11.40;100.00
61320;BME280;47202;41.440;-8.310;2022-11-20T01:42:25;100429.00;;;11.41;100.00
61320;BME280;47202;41.440;-8.310;2022-11-20T01:44:59;100418.03;;;11.42;100.00
61320;BME280;47202;41.440;-8.310;2022-11-20T01:47:04;100411.59;;;11.43;100.00
61320;BME280;47202;41.440;-8.310;2022-11-20T01:50:04;100417.78;;;11.44;100.00
61320;BME280;47202;41.440;-8.310;2022-11-20T01:51:43;100405.25;;;11.38;100.00
61320;BME280;47202;41.440;-8.310;2022-11-20T01:53:45;100409.97;;;11.42;100.00
61320;BME280;47202;41.440;-8.310;2022-11-20T01:55:52;100414.28;;;11.43;100.00
61320;BME280;47202;41.440;-8.310;2022-11-20T01:57:54;100413.47;;;11.43;100.00
61320;BME280;47202;41.440;-8.310;2022-11-20T02:00:06;100417.78;;;11.44;100.00
61320;BME280;47202;41.440;-8.310;2022-11-20T02:02:14;100416.97;;;11.43;100.00
61320;BME280;47202;41.440;-8.310;2022-11-20T02:04:15;100413.22;;;11.44;100.00
61320;BME280;47202;41.440;-8.310;2022-11-20T02:06:25;100413.03;;;11.46;100.00
61320;BME280;47202;41.440;-8.310;2022-11-20T02:08:28;100409.72;;;11.44;100.00
61320;BME280;47202;41.440;-8.310;2022-11-20T02:10:29;100406.22;;;11.43;100.00
61320;BME280;47202;41.440;-8.310;2022-11-20T02:12:30;100407.84;;;11.44;100.00
61320;BME280;47202;41.440;-8.310;2022-11-20T02:14:51;100396.53;;;11.42;100.00
61320;BME280;47202;41.440;-8.310;2022-11-20T02:16:53;100386.81;;;11.41;100.00
61320;BME280;47202;41.440;-8.310;2022-11-20T02:18:56;100391.81;;;11.38;100.00
61320;BME280;47202;41.440;-8.310;2022-11-20T02:21:12;100396.75;;;11.41;100.00
61320;BME280;47202;41.440;-8.310;2022-11-20T02:24:20;100387.63;;;11.42;100.00
61320;BME280;47202;41.440;-8.310;2022-11-20T02:25:55;100378.75;;;11.41;100.00
61320;BME280;47202;41.440;-8.310;2022-11-20T02:27:57;100379.13;;;11.45;100.00
61320;BME280;47202;41.440;-8.310;2022-11-20T02:30:05;100379.13;;;11.45;100.00
61320;BME280;47202;41.440;-8.310;2022-11-20T02:32:28;100388.63;;;11.47;100.00
61320;BME280;47202;41.440;-8.310;2022-11-20T02:34:29;100371.06;;;11.45;100.00
61320;BME280;47202;41.440;-8.310;2022-11-20T02:36:32;100372.50;;;11.47;100.00
61320;BME280;47202;41.440;-8.310;2022-11-20T02:38:33;100376.81;;;11.48;100.00
61320;BME280;47202;41.440;-8.310;2022-11-20T02:40:34;100378.47;;;11.49;100.00
61320;BME280;47202;41.440;-8.310;2022-11-20T02:42:36;100371.22;;;11.50;100.00
61320;BME280;47202;41.440;-8.310;2022-11-20T02:44:37;100369.75;;;11.54;100.00
61320;BME280;47202;41.440;-8.310;2022-11-20T02:46:38;100375.94;;;11.55;100.00
61320;BME280;47202;41.440;-8.310;2022-11-20T02:48:39;100374.06;;;11.55;100.00
61320;BME280;47202;41.440;-8.310;2022-11-20T02:50:40;100373.00;;;11.56;100.00
61320;BME280;47202;41.440;-8.310;2022-11-20T02:52:41;100373.47;;;11.53;100.00
61320;BME280;47202;41.440;-8.310;2022-11-20T02:54:42;100374.06;;;11.55;100.00
61320;BME280;47202;41.440;-8.310;2022-11-20T02:56:43;100381.06;;;11.56;100.00
61320;BME280;47202;41.440;-8.310;2022-11-20T02:58:44;100377.34;;;11.57;100.00
61320;BME280;47202;41.440;-8.310;2022-11-20T03:00:44;100372.44;;;11.54;100.00
61320;BME280;47202;41.440;-8.310;2022-11-20T03:02:45;100371.38;;;11.55;100.00
61320;BME280;47202;41.440;-8.310;2022-11-20T03:04:46;100370.56;;;11.55;100.00
61320;BME280;47202;41.440;-8.310;2022-11-20T03:06:47;100380.06;;;11.57;100.00
61320;BME280;47202;41.440;-8.310;2022-11-20T03:08:48;100374.28;;;11.54;100.00
61320;BME280;47202;41.440;-8.310;2022-11-20T03:10:49;100383.75;;;11.56;100.00
61320;BME280;47202;41.440;-8.310;2022-11-20T03:12:59;100379.22;;;11.57;100.00
61320;BME280;47202;41.440;-8.310;2022-11-20T03:14:59;100374.66;;;11.57;100.00
61320;BME280;47202;41.440;-8.310;2022-11-20T03:17:19;100371.75;;;11.59;100.00
61320;BME280;47202;41.440;-8.310;2022-11-20T03:19:20;100355.25;;;11.55;100.00
61320;BME280;47202;41.440;-8.310;2022-11-20T03:21:21;100371.53;;;11.60;100.00
61320;BME280;47202;41.440;-8.310;2022-11-20T03:23:22;100372.59;;;11.59;100.00
61320;BME280;47202;41.440;-8.310;2022-11-20T03:25:22;100356.66;;;11.58;100.00
61320;BME280;47202;41.440;-8.310;2022-11-20T03:27:23;100362.03;;;11.58;100.00
61320;BME280;47202;41.440;-8.310;2022-11-20T03:29:24;100358.16;;;11.54;100.00
61320;BME280;47202;41.440;-8.310;2022-11-20T03:31:28;100356.88;;;11.56;100.00
61320;BME280;47202;41.440;-8.310;2022-11-20T03:33:29;100361.22;;;11.57;100.00
61320;BME280;47202;41.440;-8.310;2022-11-20T03:35:30;100360.19;;;11.58;100.00
61320;BME280;47202;41.440;-8.310;2022-11-20T03:37:31;100351.91;;;11.60;100.00
61320;BME280;47202;41.440;-8.310;2022-11-20T03:39:32;100346.31;;;11.61;100.00
61320;BME280;47202;41.440;-8.310;2022-11-20T03:41:39;100345.69;;;11.59;100.00
61320;BME280;47202;41.440;-8.310;2022-11-20T03:43:40;100343.16;;;11.64;100.00
61320;BME280;47202;41.440;-8.310;2022-11-20T03:45:41;100336.72;;;11.65;100.00
61320;BME280;47202;41.440;-8.310;2022-11-20T03:47:42;100329.94;;;11.63;100.00
61320;BME280;47202;41.440;-8.310;2022-11-20T03:49:43;100328.66;;;11.65;100.00
61320;BME280;47202;41.440;-8.310;2022-11-20T03:51:44;100331.75;;;11.69;100.00
61320;BME280;47202;41.440;-8.310;2022-11-20T03:53:46;100331.13;;;11.67;100.00
61320;BME280;47202;41.440;-8.310;2022-11-20T03:55:51;100339.00;;;11.68;100.00
61320;BME280;47202;41.440;-8.310;2022-11-20T03:57:51;100340.63;;;11.69;100.00
61320;BME280;47202;41.440;-8.310;2022-11-20T03:59:52;100342.72;;;11.67;100.00
61320;BME280;47202;41.440;-8.310;2022-11-20T04:01:53;100345.41;;;11.67;100.00
61320;BME280;47202;41.440;-8.310;2022-11-20T04:03:55;100342.50;;;11.69;100.00
61320;BME280;47202;41.440;-8.310;2022-11-20T04:06:04;100335.25;;;11.69;100.00
61320;BME280;47202;41.440;-8.310;2022-11-20T04:08:06;100341.69;;;11.68;100.00
61320;BME280;47202;41.440;-8.310;2022-11-20T04:10:07;100345.19;;;11.69;100.00
61320;BME280;47202;41.440;-8.310;2022-11-20T04:12:08;100344.94;;;11.70;100.00
61320;BME280;47202;41.440;-8.310;2022-11-20T04:14:13;100327.38;;;11.68;100.00
61320;BME280;47202;41.440;-8.310;2022-11-20T04:16:15;100342.25;;;11.70;100.00
61320;BME280;47202;41.440;-8.310;2022-11-20T04:18:16;100349.50;;;11.70;100.00
61320;BME280;47202;41.440;-8.310;2022-11-20T04:20:17;100327.69;;;11.60;100.00
61320;BME280;47202;41.440;-8.310;2022-11-20T04:22:18;100339.41;;;11.65;100.00
61320;BME280;47202;41.440;-8.310;2022-11-20T04:24:19;100334.50;;;11.62;100.00
61320;BME280;47202;41.440;-8.310;2022-11-20T04:26:22;100345.25;;;11.62;100.00
61320;BME280;47202;41.440;-8.310;2022-11-20T04:28:23;100337.03;;;11.57;100.00
61320;BME280;47202;41.440;-8.310;2022-11-20T04:30:24;100344.03;;;11.58;100.00
61320;BME280;47202;41.440;-8.310;2022-11-20T04:32:24;100335.16;;;11.58;100.00
61320;BME280;47202;41.440;-8.310;2022-11-20T04:34:25;100342.41;;;11.57;100.00
61320;BME280;47202;41.440;-8.310;2022-11-20T04:36:27;100337.69;;;11.53;100.00
61320;BME280;47202;41.440;-8.310;2022-11-20T04:38:28;100344.50;;;11.55;100.00
61320;BME280;47202;41.440;-8.310;2022-11-20T04:40:30;100341.59;;;11.57;100.00
61320;BME280;47202;41.440;-8.310;2022-11-20T04:42:31;100345.69;;;11.59;100.00
61320;BME280;47202;41.440;-8.310;2022-11-20T04:44:31;100333.97;;;11.54;100.00
61320;BME280;47202;41.440;-8.310;2022-11-20T04:46:38;100336.03;;;11.52;100.00
61320;BME280;47202;41.440;-8.310;2022-11-20T04:48:39;100340.00;;;11.49;100.00
61320;BME280;47202;41.440;-8.310;2022-11-20T04:50:40;100337.75;;;11.46;100.00
61320;BME280;47202;41.440;-8.310;2022-11-20T04:52:41;100336.72;;;11.47;100.00
61320;BME280;47202;41.440;-8.310;2022-11-20T04:54:42;100335.06;;;11.46;100.00
61320;BME280;47202;41.440;-8.310;2022-11-20T04:56:43;100338.38;;;11.48;100.00
61320;BME280;47202;41.440;-8.310;2022-11-20T04:58:44;100326.41;;;11.44;100.00
61320;BME280;47202;41.440;-8.310;2022-11-20T05:00:45;100327.97;;;11.52;100.00
61320;BME280;47202;41.440;-8.310;2022-11-20T05:02:46;100341.00;;;11.55;100.00
61320;BME280;47202;41.440;-8.310;2022-11-20T05:04:47;100342.88;;;11.54;100.00
61320;BME280;47202;41.440;-8.310;2022-11-20T05:06:47;100349.06;;;11.55;100.00
61320;BME280;47202;41.440;-8.310;2022-11-20T05:08:49;100347.84;;;11.50;100.00
61320;BME280;47202;41.440;-8.310;2022-11-20T05:10:50;100350.75;;;11.49;100.00
61320;BME280;47202;41.440;-8.310;2022-11-20T05:12:51;100352.63;;;11.48;100.00
61320;BME280;47202;41.440;-8.310;2022-11-20T05:14:52;100353.44;;;11.49;100.00
61320;BME280;47202;41.440;-8.310;2022-11-20T05:16:53;100344.94;;;11.52;100.00
61320;BME280;47202;41.440;-8.310;2022-11-20T05:18:55;100343.28;;;11.51;100.00
61320;BME280;47202;41.440;-8.310;2022-11-20T05:20:57;100342.69;;;11.49;100.00
61320;BME280;47202;41.440;-8.310;2022-11-20T05:22:58;100328.66;;;11.47;100.00
61320;BME280;47202;41.440;-8.310;2022-11-20T05:24:59;100332.78;;;11.49;100.00
61320;BME280;47202;41.440;-8.310;2022-11-20T05:26:59;100336.28;;;11.50;100.00
61320;BME280;47202;41.440;-8.310;2022-11-20T05:29:00;100338.16;;;11.49;100.00
61320;BME280;47202;41.440;-8.310;2022-11-20T05:31:15;100339.78;;;11.50;100.00
61320;BME280;47202;41.440;-8.310;2022-11-20T05:33:16;100339.56;;;11.52;100.00
61320;BME280;47202;41.440;-8.310;2022-11-20T05:35:17;100336.88;;;11.52;100.00
61320;BME280;47202;41.440;-8.310;2022-11-20T05:37:18;100343.28;;;11.51;100.00
61320;BME280;47202;41.440;-8.310;2022-11-20T05:39:19;100340.66;;;11.44;100.00
61320;BME280;47202;41.440;-8.310;2022-11-20T05:41:20;100341.25;;;11.46;100.00
61320;BME280;47202;41.440;-8.310;2022-11-20T05:43:21;100339.63;;;11.45;100.00
61320;BME280;47202;41.440;-8.310;2022-11-20T05:45:22;100335.06;;;11.46;100.00
61320;BME280;47202;41.440;-8.310;2022-11-20T05:47:23;100341.25;;;11.46;100.00
61320;BME280;47202;41.440;-8.310;2022-11-20T05:49:24;100347.50;;;11.47;100.00
61320;BME280;47202;41.440;-8.310;2022-11-20T05:51:25;100328.50;;;11.42;100.00
61320;BME280;47202;41.440;-8.310;2022-11-20T05:53:26;100341.66;;;11.50;100.00
61320;BME280;47202;41.440;-8.310;2022-11-20T05:55:27;100335.06;;;11.46;100.00
61320;BME280;47202;41.440;-8.310;2022-11-20T05:57:28;100338.97;;;11.50;100.00
61320;BME280;47202;41.440;-8.310;2022-11-20T05:59:29;100335.81;;;11.53;100.00
61320;BME280;47202;41.440;-8.310;2022-11-20T06:01:30;100334.81;;;11.54;100.00
61320;BME280;47202;41.440;-8.310;2022-11-20T06:03:30;100344.50;;;11.55;100.00
61320;BME280;47202;41.440;-8.310;2022-11-20T06:05:33;100341.59;;;11.57;100.00
61320;BME280;47202;41.440;-8.310;2022-11-20T06:07:34;100344.03;;;11.58;100.00
61320;BME280;47202;41.440;-8.310;2022-11-20T06:09:34;100340.31;;;11.59;100.00
61320;BME280;47202;41.440;-8.310;2022-11-20T06:11:35;100343.00;;;11.59;100.00
61320;BME280;47202;41.440;-8.310;2022-11-20T06:13:37;100345.25;;;11.62;100.00
61320;BME280;47202;41.440;-8.310;2022-11-20T06:15:37;100339.28;;;11.60;100.00
61320;BME280;47202;41.440;-8.310;2022-11-20T06:17:38;100341.97;;;11.60;100.00
61320;BME280;47202;41.440;-8.310;2022-11-20T06:19:39;100336.59;;;11.60;100.00
61320;BME280;47202;41.440;-8.310;2022-11-20T06:21:40;100334.34;;;11.57;100.00
61320;BME280;47202;41.440;-8.310;2022-11-20T06:23:41;100338.06;;;11.56;100.00
61320;BME280;47202;41.440;-8.310;2022-11-20T06:25:43;100335.00;;;11.53;100.00
61320;BME280;47202;41.440;-8.310;2022-11-20T06:27:44;100337.31;;;11.49;100.00
61320;BME280;47202;41.440;-8.310;2022-11-20T06:29:44;100345.75;;;11.53;100.00
61320;BME280;47202;41.440;-8.310;2022-11-20T06:31:45;100349.88;;;11.55;100.00
61320;BME280;47202;41.440;-8.310;2022-11-20T06:33:46;100343.28;;;11.51;100.00
61320;BME280;47202;41.440;-8.310;2022-11-20T06:35:47;100353.78;;;11.59;100.00
61320;BME280;47202;41.440;-8.310;2022-11-20T06:37:48;100352.25;;;11.63;100.00
61320;BME280;47202;41.440;-8.310;2022-11-20T06:39:49;100353.09;;;11.64;100.00
61320;BME280;47202;41.440;-8.310;2022-11-20T06:41:50;100356.38;;;11.66;100.00
61320;BME280;47202;41.440;-8.310;2022-11-20T06:43:51;100343.97;;;11.65;100.00
61320;BME280;47202;41.440;-8.310;2022-11-20T06:45:57;100363.41;;;11.67;100.00
61320;BME280;47202;41.440;-8.310;2022-11-20T06:47:58;100360.72;;;11.67;100.00
61320;BME280;47202;41.440;-8.310;2022-11-20T06:49:59;100359.91;;;11.66;100.00
61320;BME280;47202;41.440;-8.310;2022-11-20T06:51:59;100365.03;;;11.68;100.00
61320;BME280;47202;41.440;-8.310;2022-11-20T06:54:00;100357.22;;;11.66;100.00
61320;BME280;47202;41.440;-8.310;2022-11-20T06:56:02;100361.53;;;11.67;100.00
61320;BME280;47202;41.440;-8.310;2022-11-20T06:58:03;100355.94;;;11.69;100.00
61320;BME280;47202;41.440;-8.310;2022-11-20T07:00:04;100362.34;;;11.68;100.00
61320;BME280;47202;41.440;-8.310;2022-11-20T07:02:05;100359.28;;;11.64;100.00
61320;BME280;47202;41.440;-8.310;2022-11-20T07:04:06;100363.47;;;11.60;100.00
61320;BME280;47202;41.440;-8.310;2022-11-20T07:06:07;100365.94;;;11.62;100.00
61320;BME280;47202;41.440;-8.310;2022-11-20T07:08:09;100367.81;;;11.61;100.00
61320;BME280;47202;41.440;-8.310;2022-11-20T07:10:10;100366.59;;;11.57;100.00
61320;BME280;47202;41.440;-8.310;2022-11-20T07:12:11;100371.06;;;11.63;100.00
61320;BME280;47202;41.440;-8.310;2022-11-20T07:14:11;100376.91;;;11.60;100.00
61320;BME280;47202;41.440;-8.310;2022-11-20T07:16:12;100376.31;;;11.58;100.00
61320;BME280;47202;41.440;-8.310;2022-11-20T07:18:13;100381.69;;;11.58;100.00
61320;BME280;47202;41.440;-8.310;2022-11-20T07:20:15;100382.50;;;11.59;100.00
61320;BME280;47202;41.440;-8.310;2022-11-20T07:22:16;100380.41;;;11.61;100.00
61320;BME280;47202;41.440;-8.310;2022-11-20T07:24:16;100381.25;;;11.61;100.00
61320;BME280;47202;41.440;-8.310;2022-11-20T07:26:17;100387.66;;;11.60;100.00
61320;BME280;47202;41.440;-8.310;2022-11-20T07:28:19;100390.75;;;11.64;100.00
61320;BME280;47202;41.440;-8.310;2022-11-20T07:30:20;100387.81;;;11.65;100.00
61320;BME280;47202;41.440;-8.310;2022-11-20T07:32:21;100379.59;;;11.60;100.00
61320;BME280;47202;41.440;-8.310;2022-11-20T07:34:22;100389.53;;;11.60;100.00
61320;BME280;47202;41.440;-8.310;2022-11-20T07:36:23;100384.38;;;11.58;100.00
61320;BME280;47202;41.440;-8.310;2022-11-20T07:38:24;100390.19;;;11.55;100.00
61320;BME280;47202;41.440;-8.310;2022-11-20T07:40:25;100388.31;;;11.56;100.00
61320;BME280;47202;41.440;-8.310;2022-11-20T07:42:26;100386.09;;;11.53;100.00
61320;BME280;47202;41.440;-8.310;2022-11-20T07:44:27;100390.19;;;11.55;100.00
61320;BME280;47202;41.440;-8.310;2022-11-20T07:46:27;100397.19;;;11.56;100.00
61320;BME280;47202;41.440;-8.310;2022-11-20T07:48:28;100396.19;;;11.57;100.00
61320;BME280;47202;41.440;-8.310;2022-11-20T07:50:29;100395.13;;;11.58;100.00
61320;BME280;47202;41.440;-8.310;2022-11-20T07:52:30;100401.72;;;11.62;100.00
61320;BME280;47202;41.440;-8.310;2022-11-20T07:54:31;100401.50;;;11.64;100.00
61320;BME280;47202;41.440;-8.310;2022-11-20T07:56:32;100404.56;;;11.67;100.00
61320;BME280;47202;41.440;-8.310;2022-11-20T07:58:33;100409.72;;;11.69;100.00
61320;BME280;47202;41.440;-8.310;2022-11-20T08:00:34;100416.53;;;11.71;100.00
61320;BME280;47202;41.440;-8.310;2022-11-20T08:02:42;100417.53;;;11.70;100.00
61320;BME280;47202;41.440;-8.310;2022-11-20T08:04:43;100420.84;;;11.73;100.00
61320;BME280;47202;41.440;-8.310;2022-11-20T08:06:43;100421.91;;;11.71;100.00
61320;BME280;47202;41.440;-8.310;2022-11-20T08:08:44;100421.06;;;11.71;100.00
61320;BME280;47202;41.440;-8.310;2022-11-20T08:10:45;100432.66;;;11.71;100.00
61320;BME280;47202;41.440;-8.310;2022-11-20T08:12:48;100427.72;;;11.68;100.00
61320;BME280;47202;41.440;-8.310;2022-11-20T08:15:09;100421.75;;;11.66;100.00
61320;BME280;47202;41.440;-8.310;2022-11-20T08:17:10;100438.63;;;11.74;100.00
61320;BME280;47202;41.440;-8.310;2022-11-20T08:19:14;100438.63;;;11.74;100.00
61320;BME280;47202;41.440;-8.310;2022-11-20T08:21:16;100453.09;;;11.73;100.00
61320;BME280;47202;41.440;-8.310;2022-11-20T08:23:16;100443.63;;;11.70;100.00
61320;BME280;47202;41.440;-8.310;2022-11-20T08:25:17;100450.66;;;11.71;100.00
61320;BME280;47202;41.440;-8.310;2022-11-20T08:27:18;100444.44;;;11.70;100.00
61320;BME280;47202;41.440;-8.310;2022-11-20T08:29:19;100442.81;;;11.69;100.00
61320;BME280;47202;41.440;-8.310;2022-11-20T08:31:20;100446.09;;;11.71;100.00
61320;BME280;47202;41.440;-8.310;2022-11-20T08:33:21;100452.09;;;11.74;100.00
61320;BME280;47202;41.440;-8.310;2022-11-20T08:35:22;100449.75;;;11.77;100.00
61320;BME280;47202;41.440;-8.310;2022-11-20T08:37:23;100444.78;;;11.81;100.00
61320;BME280;47202;41.440;-8.310;2022-11-20T08:39:24;100455.06;;;11.84;100.00
61320;BME280;47202;41.440;-8.310;2022-11-20T08:41:24;100446.81;;;11.85;100.00
61320;BME280;47202;41.440;-8.310;2022-11-20T08:43:28;100445.56;;;11.88;100.00
61320;BME280;47202;41.440;-8.310;2022-11-20T08:45:29;100457.94;;;11.89;100.00
61320;BME280;47202;41.440;-8.310;2022-11-20T08:47:30;100446.75;;;11.92;100.00
61320;BME280;47202;41.440;-8.310;2022-11-20T08:49:31;100456.03;;;11.96;100.00
61320;BME280;47202;41.440;-8.310;2022-11-20T08:51:32;100457.44;;;11.99;100.00
61320;BME280;47202;41.440;-8.310;2022-11-20T08:53:33;100465.66;;;12.04;100.00
61320;BME280;47202;41.440;-8.310;2022-11-20T08:55:34;100457.38;;;12.05;100.00
61320;BME280;47202;41.440;-8.310;2022-11-20T08:57:36;100460.22;;;12.10;100.00
61320;BME280;47202;41.440;-8.310;2022-11-20T08:59:37;100461.63;;;12.13;100.00
61320;BME280;47202;41.440;-8.310;2022-11-20T09:01:38;100471.50;;;12.19;100.00
61320;BME280;47202;41.440;-8.310;2022-11-20T09:03:39;100465.69;;;12.22;100.00
61320;BME280;47202;41.440;-8.310;2022-11-20T09:05:40;100475.16;;;12.25;100.00
61320;BME280;47202;41.440;-8.310;2022-11-20T09:07:41;100466.03;;;12.26;100.00
61320;BME280;47202;41.440;-8.310;2022-11-20T09:09:42;100471.00;;;12.29;100.00
61320;BME280;47202;41.440;-8.310;2022-11-20T09:11:43;100471.81;;;12.29;100.00
61320;BME280;47202;41.440;-8.310;2022-11-20T09:13:44;100473.09;;;12.27;100.00
61320;BME280;47202;41.440;-8.310;2022-11-20T09:15:45;100475.78;;;12.27;100.00
61320;BME280;47202;41.440;-8.310;2022-11-20T09:17:56;100478.63;;;12.32;100.00
61320;BME280;47202;41.440;-8.310;2022-11-20T09:19:58;100480.69;;;12.30;100.00
61320;BME280;47202;41.440;-8.310;2022-11-20T09:21:59;100481.69;;;12.36;100.00
61320;BME280;47202;41.440;-8.310;2022-11-20T09:24:00;100476.97;;;12.31;100.00
61320;BME280;47202;41.440;-8.310;2022-11-20T09:26:14;100480.94;;;12.28;100.00
61320;BME280;47202;41.440;-8.310;2022-11-20T09:28:15;100483.63;;;12.28;100.00
61320;BME280;47202;41.440;-8.310;2022-11-20T09:30:16;100483.84;;;12.27;100.00
61320;BME280;47202;41.440;-8.310;2022-11-20T09:32:17;100470.25;;;12.22;100.00
61320;BME280;47202;41.440;-8.310;2022-11-20T09:34:18;100481.97;;;12.27;100.00
61320;BME280;47202;41.440;-8.310;2022-11-20T09:36:19;100476.38;;;12.29;100.00
61320;BME280;47202;41.440;-8.310;2022-11-20T09:38:20;100490.34;;;12.38;100.00
61320;BME280;47202;41.440;-8.310;2022-11-20T09:40:29;100492.00;;;12.39;100.00
61320;BME280;47202;41.440;-8.310;2022-11-20T09:45:17;100500.81;;;12.46;100.00
61320;BME280;47202;41.440;-8.310;2022-11-20T09:47:36;100507.97;;;12.52;100.00
61320;BME280;47202;41.440;-8.310;2022-11-20T09:50:13;100500.50;;;12.54;100.00
61320;BME280;47202;41.440;-8.310;2022-11-20T09:54:39;100506.13;;;12.52;100.00
61320;BME280;47202;41.440;-8.310;2022-11-20T09:55:01;100503.44;;;12.52;100.00
61320;BME280;47202;41.440;-8.310;2022-11-20T09:57:08;100502.78;;;12.57;100.00
61320;BME280;47202;41.440;-8.310;2022-11-20T10:01:39;100505.16;;;12.65;100.00
61320;BME280;47202;41.440;-8.310;2022-11-20T10:04:30;100505.75;;;12.67;100.00
61320;BME280;47202;41.440;-8.310;2022-11-20T10:06:10;100511.28;;;12.72;100.00
61320;BME280;47202;41.440;-8.310;2022-11-20T10:08:18;100513.16;;;12.72;100.00
61320;BME280;47202;41.440;-8.310;2022-11-20T10:16:10;100520.91;;;12.80;100.00
61320;BME280;47202;41.440;-8.310;2022-11-20T10:18:07;100504.75;;;12.80;100.00
61320;BME280;47202;41.440;-8.310;2022-11-20T10:25:19;100504.44;;;12.88;100.00
61320;BME280;47202;41.440;-8.310;2022-11-20T10:29:46;100508.78;;;12.89;100.00
61320;BME280;47202;41.440;-8.310;2022-11-20T10:31:56;100508.78;;;12.89;100.00
61320;BME280;47202;41.440;-8.310;2022-11-20T10:33:59;100511.84;;;12.93;100.00
61320;BME280;47202;41.440;-8.310;2022-11-20T10:38:14;100507.03;;;12.95;100.00
61320;BME280;47202;41.440;-8.310;2022-11-20T10:42:32;100500.53;;;13.03;100.00
61320;BME280;47202;41.440;-8.310;2022-11-20T10:44:36;100499.00;;;13.07;100.00
61320;BME280;47202;41.440;-8.310;2022-11-20T10:46:58;100503.50;;;13.13;100.00
61320;BME280;47202;41.440;-8.310;2022-11-20T10:48:59;100501.75;;;13.18;100.00